METAR (acronimo di METeorological Air Report) è un messaggio meteo emesso nella maggior parte dei casi in ambito aeroportuale

YSSY - Sydney, Australia
Ultimo Aggiornamento: Domenica 27 Settembre 2020 18:30 CEST
Sereno
Sereno
 Wind from Nord-Nord-Ovest
Vento: Nord-Nord-Ovest 13 km/h
Temperatura: 11°C
Punto di Rugiada: 5°C
Umidità: 67%
Barometro: 1025 hPa
Condizioni: Sereno
Visibilità: superiore a 10 km
2020/09/27 16:30 YSSY 271630Z 34007KT CAVOK 11/05 Q1025 NOSIG
YMML - Melbourne, Australia
Ultimo Aggiornamento: Domenica 27 Settembre 2020 18:30 CEST
Prevalentemente Nuvoloso
Prevalentemente Nuvoloso
 Wind from Nord-Nord-Ovest
Vento: Nord-Nord-Ovest 6 km/h
Temperatura: 5°C
Punto di Rugiada: 4°C
Umidità: 93%
Barometro: 1027 hPa
Nuvole: Prevalentemente Nuvoloso
Visibilità: 10 km
Nuvole nel Dettaglio: Prevalentemente Nuvoloso 1006 m
2020/09/27 16:30 YMML 271630Z 33003KT 9999 BKN033 05/04 Q1027 NOSIG
YBBN - Brisbane, Australia
Ultimo Aggiornamento: Domenica 27 Settembre 2020 18:30 CEST
Sereno
Sereno
 Wind from Sud-Sud-Ovest
Vento: Sud-Sud-Ovest 11 km/h
Temperatura: 13°C
Punto di Rugiada: 7°C
Umidità: 67%
Barometro: 1022 hPa
Condizioni: Sereno
Visibilità: superiore a 10 km
2020/09/27 16:30 YBBN 271630Z 21006KT CAVOK 13/07 Q1022 NOSIG
 
YPPH - Perth, Australia
Ultimo Aggiornamento: Domenica 27 Settembre 2020 18:30 CEST
Prevalentemente Nuvoloso
Prevalentemente Nuvoloso
 Wind from Nord-Est
Vento: Nord-Est 9 km/h
Temperatura: 12°C
Punto di Rugiada: 11°C
Umidità: 94%
Barometro: 1016 hPa
Nuvole: Prevalentemente Nuvoloso
Visibilità: 10 km
Nuvole nel Dettaglio: Qualche Nuvola 853 m
Parzialmente Nuvoloso 1006 m
Prevalentemente Nuvoloso 7468 m
2020/09/27 16:30 YPPH 271630Z 04005KT 9999 FEW028 SCT033 BKN245 12/11 Q1016
YBAS - Alice Springs, Australia
Ultimo Aggiornamento: Domenica 27 Settembre 2020 18:30 CEST
Sereno
Sereno
 Wind from Est-Sud-Est
Vento: Est-Sud-Est 9 km/h
Temperatura: 19°C
Punto di Rugiada: -5°C
Umidità: 19%
Barometro: 1018 hPa
Nuvole: Sereno
Visibilità: 10 km
2020/09/27 16:30 YBAS 271630Z AUTO 12005KT 9999 // NCD 19/M05 Q1018 RF00.0/000.0
NZAA - Auckland, New Zealand
Ultimo Aggiornamento: Domenica 27 Settembre 2020 18:30 CEST
Heavy rain, Acquazzoni, Prevalentemente Nuvoloso
Heavy rain, Acquazzoni, Prevalentemente Nuvoloso
 Wind from Ovest-Sud-Ovest
Vento: Ovest-Sud-Ovest 39 km/h
Temperatura: 13°C
Punto di Rugiada: 12°C
Umidità: 94%
Barometro: 1007 hPa
Condizioni: Heavy rain, Acquazzoni
Nuvole: Prevalentemente Nuvoloso
Visibilità: 3 km
Nuvole nel Dettaglio: Parzialmente Nuvoloso 732 m
Parzialmente Nuvoloso 914 m
Prevalentemente Nuvoloso 1189 m
2020/09/27 16:30 NZAA 271630Z AUTO 25021KT 3300 +SHRA SCT024/// SCT030/// BKN039/// 13/12 Q1007 TEMPO 9000 -SHRA TEMPO FEW020CB
 
NTAA - Tahiti, French Polynesia
Ultimo Aggiornamento: Domenica 27 Settembre 2020 18:30 CEST
Qualche Nuvola
Qualche Nuvola
 Wind from Sud
Vento: Sud 9 km/h
Temperatura: 25°C
Punto di Rugiada: 21°C
Umidità: 79%
Barometro: 1016 hPa
Nuvole: Qualche Nuvola
Visibilità: 10 km
Nuvole nel Dettaglio: Qualche Nuvola 610 m
2020/09/27 16:30 NTAA 271630Z 18005KT 9999 FEW020 25/21 Q1016 WS R04 NOSIG
NFFN - Nadi, Fiji
Ultimo Aggiornamento: Domenica 27 Settembre 2020 18:00 CEST
Qualche Nuvola
Qualche Nuvola
 Wind from Est-Sud-Est
Vento: Est-Sud-Est 6 km/h
Temperatura: 21°C
Punto di Rugiada: 20°C
Umidità: 94%
Barometro: 1013 hPa
Nuvole: Qualche Nuvola
Visibilità: 10 km
Nuvole nel Dettaglio: Qualche Nuvola 914 m
2020/09/27 16:00 NFFN 271600Z 11003KT 9999 FEW030 21/20 Q1013 NOSIG
PKMJ - Majuro, Marshall Islands
Ultimo Aggiornamento: Venerdì 25 Settembre 2020 23:52 CEST
Dati non Recenti
Prevalentemente Nuvoloso
Prevalentemente Nuvoloso
 Wind from Est
Vento: Est 17 km/h
Temperatura: 29°C
Heat Index: 34°C
Punto di Rugiada: 25°C
Umidità: 79%
Barometro: 1012.5 hPa
Nuvole: Prevalentemente Nuvoloso
Visibilità: 24 km
Nuvole nel Dettaglio: Qualche Nuvola 457 m
Parzialmente Nuvoloso 1524 m
Prevalentemente Nuvoloso 9144 m
2020/09/25 21:52 PKMJ 252152Z 09009KT 15SM FEW015 SCT050 BKN300 29/25 A2990 RMK LAST
 
PGUM - Hagatna, Guam, United States
Ultimo Aggiornamento: Domenica 27 Settembre 2020 17:54 CEST
Sereno
Sereno
 Wind from calm
Vento: Calma
Temperatura: 27°C
Heat Index: 31°C
Punto di Rugiada: 24°C
Umidità: 84%
Barometro: 1009.5 hPa
Nuvole: Sereno
Visibilità: 16 km
2020/09/27 15:54 PGUM 271554Z 00000KT 10SM CLR 27/24 A2981 RMK AO2 SLP087 T02720239 $
AYPY - Port Moresby, Papua New Guinea
Ultimo Aggiornamento: Domenica 27 Settembre 2020 18:00 CEST
Prevalentemente Nuvoloso
Prevalentemente Nuvoloso
 Wind from varies
Vento: variabile 6 km/h
Temperatura: 25°C
Punto di Rugiada: 24°C
Umidità: 94%
Barometro: 1009 hPa
Nuvole: Prevalentemente Nuvoloso
Visibilità: 10 km
Nuvole nel Dettaglio: Qualche Nuvola 457 m
Prevalentemente Nuvoloso 1219 m
2020/09/27 16:00 AYPY 271600Z VRB03KT 9999 FEW015 BKN040 25/24 Q1009
AGGH - Honiara, Guadalcanal, Solomon Islands
Ultimo Aggiornamento: Domenica 27 Settembre 2020 18:00 CEST
Prevalentemente Nuvoloso
Prevalentemente Nuvoloso
 Wind from Sud-Est
Vento: Sud-Est 6 km/h
Temperatura: 23°C
Punto di Rugiada: 23°C
Umidità: 100%
Barometro: 1009 hPa
Nuvole: Prevalentemente Nuvoloso
Visibilità: 10 km
Nuvole nel Dettaglio: Qualche Nuvola 427 m
Qualche Nuvola 457 m
Parzialmente Nuvoloso 853 m
Prevalentemente Nuvoloso 3048 m
2020/09/27 16:00 AGGH 271600Z 14003KT 9999 FEW014 FEW015CB SCT028 BKN100 23/23 Q1009